Time;durP1;ratioP1;P1;durP2;ratioP2;P2;SDS_P1;SDS_P2;PMS_P1;PMS_P2;Temp;Humidity;BMP_temperature;BMP_pressure;BME280_temperature;BME280_humidity;BME280_pressure;Samples;Min_cycle;Max_cycle;Signal;HPM_P1;HPM_P2
2022/05/07 00:01:02;;;;;;;9.18;8.30;;;;;;;12.12;82.36;96053.94;5017769;28;20037;-60
2022/05/07 00:03:27;;;;;;;8.73;7.72;;;;;;;12.22;81.93;96057.38;5013694;28;20026;-60
2022/05/07 00:05:53;;;;;;;8.65;7.95;;;;;;;12.08;82.34;96056.03;5015994;28;20036;-60
2022/05/07 00:08:18;;;;;;;8.70;8.00;;;;;;;12.01;82.36;96055.75;5020972;28;20022;-60
2022/05/07 00:10:44;;;;;;;8.63;8.02;;;;;;;11.99;82.44;96055.03;5011503;28;20432;-60
2022/05/07 00:13:09;;;;;;;8.57;7.82;;;;;;;12.02;82.20;96062.69;5019170;28;20079;-60
2022/05/07 00:15:35;;;;;;;8.88;8.15;;;;;;;12.00;82.67;96061.16;5012311;28;20580;-60
2022/05/07 00:18:06;;;;;;;9.88;9.10;;;;;;;12.05;82.46;96058.94;5020716;28;20053;-60
2022/05/07 00:20:35;;;;;;;8.25;7.65;;;;;;;12.16;81.25;96057.94;5018939;28;20392;-60
2022/05/07 00:23:01;;;;;;;8.23;7.53;;;;;;;12.11;81.66;96055.72;5022821;28;20578;-60
2022/05/07 00:25:28;;;;;;;9.90;9.00;;;;;;;12.11;81.88;96054.91;5017696;28;20080;-59
2022/05/07 00:27:54;;;;;;;9.43;8.10;;;;;;;12.01;81.69;96055.75;5023116;28;20024;-60
2022/05/07 00:30:20;;;;;;;8.82;8.02;;;;;;;12.03;81.32;96048.53;5014842;28;20405;-60
2022/05/07 00:32:46;;;;;;;8.35;7.50;;;;;;;11.99;82.17;96049.75;5016750;28;20164;-61
2022/05/07 00:35:11;;;;;;;7.35;6.82;;;;;;;11.94;82.13;96046.72;5019436;28;20475;-59
2022/05/07 00:37:38;;;;;;;8.68;7.53;;;;;;;11.87;83.05;96053.53;5014129;28;20429;-60
2022/05/07 00:40:04;;;;;;;10.18;7.88;;;;;;;11.86;82.78;96052.69;5018985;28;20489;-59
2022/05/07 00:42:30;;;;;;;8.32;7.55;;;;;;;12.00;82.67;96047.97;5024594;28;20064;-59
2022/05/07 00:44:55;;;;;;;8.77;8.07;;;;;;;11.93;82.96;96055.59;5022637;28;20092;-60
2022/05/07 00:47:23;;;;;;;15.63;7.88;;;;;;;11.83;82.77;96044.25;5021451;28;20029;-60
2022/05/07 00:49:51;;;;;;;7.93;7.25;;;;;;;11.80;83.51;96036.59;5022221;28;20064;-60
2022/05/07 00:52:20;;;;;;;7.82;7.22;;;;;;;11.81;83.20;96035.63;5022450;28;20030;-60
2022/05/07 00:54:47;;;;;;;8.02;7.35;;;;;;;11.79;83.79;96037.56;5026906;28;20033;-60
2022/05/07 00:57:14;;;;;;;7.85;7.25;;;;;;;11.78;83.70;96035.91;5020872;28;20013;-60
2022/05/07 00:59:40;;;;;;;9.10;7.38;;;;;;;11.75;83.92;96039.69;5023943;28;20049;-59
2022/05/07 01:02:05;;;;;;;8.57;7.80;;;;;;;11.79;83.87;96038.41;5026352;28;20098;-59
2022/05/07 01:07:53;;;;;;;8.02;7.28;;;;;;;11.84;83.14;96024.81;5024325;28;20464;-60
2022/05/07 01:10:18;;;;;;;11.82;7.45;;;;;;;11.75;83.64;96029.13;5028995;28;20057;-60
2022/05/07 01:12:44;;;;;;;8.50;7.90;;;;;;;11.69;83.88;96027.88;5018683;28;20109;-60
2022/05/07 01:15:10;;;;;;;7.97;7.38;;;;;;;11.78;83.79;96026.19;5030816;28;20409;-60
2022/05/07 01:17:35;;;;;;;8.07;7.38;;;;;;;11.78;83.61;96025.34;5027326;28;20114;-60
2022/05/07 01:20:01;;;;;;;8.00;7.30;;;;;;;11.71;84.06;96023.28;5023402;28;20489;-60
2022/05/07 01:22:29;;;;;;;7.70;7.07;;;;;;;11.65;84.76;96021.22;5018115;28;20029;-60
2022/05/07 01:24:54;;;;;;;8.05;7.25;;;;;;;11.59;85.04;96022.63;5021492;28;20022;-60
2022/05/07 01:27:20;;;;;;;8.90;8.20;;;;;;;11.59;84.69;96021.75;5022320;28;20259;-60
2022/05/07 01:29:47;;;;;;;7.65;7.05;;;;;;;11.61;85.08;96022.47;5021478;28;20214;-60
2022/05/07 01:32:13;;;;;;;7.38;6.82;;;;;;;11.59;85.41;96021.75;5016379;28;20029;-60
2022/05/07 01:34:38;;;;;;;7.70;7.00;;;;;;;11.57;85.85;96023.72;5020069;28;20030;-60
2022/05/07 01:37:04;;;;;;;7.43;6.93;;;;;;;11.58;85.52;96022.75;5023299;28;20049;-60
2022/05/07 01:39:29;;;;;;;7.82;7.13;;;;;;;11.55;85.74;96013.31;5019015;28;20034;-60
2022/05/07 01:41:54;;;;;;;8.02;7.43;;;;;;;11.53;85.89;96022.34;5013588;28;20113;-60
2022/05/07 01:44:20;;;;;;;8.38;7.55;;;;;;;11.52;86.28;96013.59;5023102;28;20657;-60
2022/05/07 01:49:29;;;;;;;10.70;8.13;;;;;;;11.52;85.83;96013.59;5021263;28;20111;-60
2022/05/07 01:51:54;;;;;;;7.82;7.07;;;;;;;11.60;85.07;96007.59;5020003;28;20488;-60
2022/05/07 01:54:19;;;;;;;7.93;7.32;;;;;;;11.60;85.33;96007.59;5016673;28;20029;-60
2022/05/07 01:56:45;;;;;;;8.75;7.95;;;;;;;11.65;84.87;96000.13;5023001;28;20075;-60
2022/05/07 01:59:10;;;;;;;10.70;7.22;;;;;;;11.68;84.96;96001.63;5020439;28;20136;-60
2022/05/07 02:01:35;;;;;;;8.15;7.47;;;;;;;11.70;85.09;95999.69;5021344;28;20033;-60
2022/05/07 02:04:01;;;;;;;8.30;7.47;;;;;;;11.72;84.84;95998.56;5015088;28;20025;-60
2022/05/07 02:06:26;;;;;;;7.85;7.15;;;;;;;11.74;84.62;95994.00;5021380;28;20441;-60
2022/05/07 02:08:53;;;;;;;7.88;7.28;;;;;;;11.66;85.13;95996.50;5020972;28;20546;-60
2022/05/07 02:11:19;;;;;;;7.85;7.25;;;;;;;11.56;85.53;95993.03;5019222;28;20065;-60
2022/05/07 02:13:44;;;;;;;7.85;7.25;;;;;;;11.48;85.60;95993.75;5020152;28;20113;-61
2022/05/07 02:16:09;;;;;;;7.80;7.07;;;;;;;11.45;86.30;95999.28;5016476;28;20025;-59
2022/05/07 02:18:35;;;;;;;8.18;7.47;;;;;;;11.39;86.71;95995.44;5023362;28;20029;-60
2022/05/07 02:21:00;;;;;;;8.13;7.53;;;;;;;11.38;86.48;95990.28;5018708;28;20401;-60
2022/05/07 02:23:26;;;;;;;8.57;7.68;;;;;;;11.36;86.52;96000.16;5025663;28;20040;-60
2022/05/07 02:25:51;;;;;;;8.55;7.85;;;;;;;11.36;86.50;96000.16;5025253;28;20404;-60
2022/05/07 02:28:17;;;;;;;8.32;7.72;;;;;;;11.35;86.74;96004.56;5023263;28;20037;-59
2022/05/07 02:30:42;;;;;;;8.20;7.50;;;;;;;11.32;86.81;95997.78;5021102;28;20037;-60
2022/05/07 02:33:08;;;;;;;8.32;7.55;;;;;;;11.37;86.75;95993.91;5016997;28;20093;-60
2022/05/07 02:35:33;;;;;;;10.82;8.18;;;;;;;11.38;86.33;95992.94;5021998;28;20076;-60
2022/05/07 02:37:59;;;;;;;8.10;7.43;;;;;;;11.38;86.64;95998.19;5020059;28;20106;-60
2022/05/07 02:40:24;;;;;;;8.80;7.18;;;;;;;11.32;86.91;95995.16;5018425;28;20473;-60
2022/05/07 02:42:50;;;;;;;8.73;8.00;;;;;;;11.33;86.59;95995.97;5016511;28;20038;-60
2022/05/07 02:45:15;;;;;;;7.95;7.25;;;;;;;11.32;86.53;95997.78;5029074;28;20095;-60
2022/05/07 02:47:42;;;;;;;8.32;7.45;;;;;;;11.35;86.72;95988.75;5020177;28;20600;-60
2022/05/07 02:50:09;;;;;;;8.45;7.72;;;;;;;11.38;86.24;95987.66;5021099;28;20049;-60
2022/05/07 02:52:35;;;;;;;8.75;8.05;;;;;;;11.34;86.10;95995.00;5021536;28;20036;-60
2022/05/07 02:55:02;;;;;;;8.52;7.72;;;;;;;11.33;86.13;95990.69;5017277;28;20105;-60
2022/05/07 02:57:28;;;;;;;8.23;7.63;;;;;;;11.27;86.38;95989.47;5021548;28;20060;-60
2022/05/07 02:59:54;;;;;;;8.45;7.40;;;;;;;11.29;86.25;95997.22;5018399;28;20049;-60
2022/05/07 03:02:19;;;;;;;8.43;7.72;;;;;;;11.24;86.76;95996.81;5019358;28;20083;-60
2022/05/07 03:04:47;;;;;;;8.35;7.55;;;;;;;11.22;86.93;95990.84;5019788;28;20057;-60
2022/05/07 03:07:13;;;;;;;8.38;7.78;;;;;;;11.24;86.50;95988.91;5019711;28;20069;-60
2022/05/07 03:09:38;;;;;;;10.52;7.70;;;;;;;11.27;86.33;95986.84;5030097;28;20025;-60
2022/05/07 03:12:04;;;;;;;8.50;7.80;;;;;;;11.29;86.20;95986.69;5030312;28;20018;-60
2022/05/07 03:14:31;;;;;;;7.93;7.30;;;;;;;11.32;85.73;95989.88;5029619;28;20090;-60
2022/05/07 03:16:56;;;;;;;7.70;7.10;;;;;;;11.31;85.89;95982.09;5018456;28;20125;-60
2022/05/07 03:19:21;;;;;;;8.90;8.25;;;;;;;11.32;85.80;95989.03;5010700;28;20442;-60
2022/05/07 03:21:47;;;;;;;9.13;8.23;;;;;;;11.35;85.75;95988.75;5010446;28;20057;-60
2022/05/07 03:24:12;;;;;;;8.13;7.43;;;;;;;11.29;86.43;95981.41;5024257;28;20021;-60
2022/05/07 03:26:38;;;;;;;8.38;7.78;;;;;;;11.24;87.18;95991.53;5026991;28;20025;-60
2022/05/07 03:29:03;;;;;;;8.02;7.32;;;;;;;11.20;87.36;95988.34;5029929;28;20032;-60
2022/05/07 03:31:30;;;;;;;9.60;8.68;;;;;;;11.19;86.98;95984.06;5030079;28;20025;-60
2022/05/07 03:33:56;;;;;;;8.95;8.07;;;;;;;11.25;86.54;95986.13;5029972;28;20100;-60
2022/05/07 03:36:21;;;;;;;8.40;7.80;;;;;;;11.24;87.00;95984.47;5030048;28;20029;-60
2022/05/07 03:38:47;;;;;;;8.32;7.63;;;;;;;11.18;87.28;95980.59;5029340;28;20033;-59
2022/05/07 03:41:14;;;;;;;8.50;7.90;;;;;;;11.23;86.67;95985.44;5029398;28;20033;-61
2022/05/07 03:43:40;;;;;;;9.40;8.60;;;;;;;11.18;86.35;95983.22;5018523;28;20436;-60
2022/05/07 03:46:06;;;;;;;9.63;8.77;;;;;;;11.17;86.84;95986.84;5030427;28;20036;-61
2022/05/07 03:48:32;;;;;;;9.25;8.55;;;;;;;11.20;86.50;95984.91;5029038;28;20501;-61
2022/05/07 03:50:57;;;;;;;11.45;8.52;;;;;;;11.14;86.64;95989.72;5015123;28;20093;-61
2022/05/07 03:53:32;;;;;;;8.88;8.07;;;;;;;11.11;87.16;95994.47;5010268;28;20061;-61
2022/05/07 03:56:02;;;;;;;9.23;8.43;;;;;;;11.23;86.02;96000.44;5010201;28;20173;-61
2022/05/07 03:58:29;;;;;;;8.75;8.07;;;;;;;11.15;86.69;95994.03;5009830;28;20038;-61
2022/05/07 04:00:56;;;;;;;8.35;7.75;;;;;;;11.20;86.62;95995.44;5009799;28;20080;-62
2022/05/07 04:03:22;;;;;;;8.55;7.95;;;;;;;11.26;86.36;95992.25;5015595;28;20029;-61
2022/05/07 04:05:48;;;;;;;8.65;7.82;;;;;;;11.36;85.54;96003.59;5028226;28;20029;-60
2022/05/07 04:08:14;;;;;;;8.73;8.05;;;;;;;11.21;86.44;95995.28;5029446;28;20561;-60
2022/05/07 04:10:39;;;;;;;8.75;7.97;;;;;;;11.29;85.68;95999.88;5029454;28;20065;-61
2022/05/07 04:13:06;;;;;;;8.50;7.80;;;;;;;11.18;85.96;96004.31;5029265;28;20026;-61
2022/05/07 04:15:31;;;;;;;9.23;8.52;;;;;;;11.13;86.24;96006.50;5028766;28;20056;-61
2022/05/07 04:17:58;;;;;;;8.88;8.02;;;;;;;11.12;86.55;96002.22;5029403;28;20053;-60
2022/05/07 04:20:24;;;;;;;9.38;8.68;;;;;;;11.26;86.24;96010.69;5029414;28;20064;-60
2022/05/07 04:22:49;;;;;;;9.38;8.38;;;;;;;11.21;85.83;96007.63;5029538;28;20068;-60
2022/05/07 04:25:15;;;;;;;9.15;8.25;;;;;;;11.11;86.57;96008.44;5029148;28;20373;-61
2022/05/07 04:27:40;;;;;;;9.93;8.75;;;;;;;11.22;86.22;96009.31;5029369;28;20036;-61
2022/05/07 04:30:06;;;;;;;9.70;8.80;;;;;;;11.11;86.57;96010.25;5029302;28;20515;-61
2022/05/07 04:32:32;;;;;;;9.70;8.88;;;;;;;11.12;86.85;96004.03;5029185;28;20079;-60
2022/05/07 04:34:57;;;;;;;10.35;8.98;;;;;;;11.08;88.24;96005.28;5029338;28;20108;-61
2022/05/07 04:37:24;;;;;;;9.32;8.43;;;;;;;11.05;87.33;96006.38;5029482;28;20038;-61
2022/05/07 04:39:50;;;;;;;8.80;8.18;;;;;;;11.05;87.07;96009.00;5029313;28;20041;-60
2022/05/07 04:42:15;;;;;;;9.52;8.73;;;;;;;11.09;87.17;96015.66;5029165;28;20053;-60
2022/05/07 04:44:41;;;;;;;9.05;8.35;;;;;;;11.02;87.30;96011.91;5029189;28;20091;-60
2022/05/07 04:47:07;;;;;;;8.90;8.30;;;;;;;11.08;86.80;96013.19;5028325;28;20492;-60
2022/05/07 04:49:32;;;;;;;9.60;8.80;;;;;;;11.06;86.90;96013.31;5029439;28;20036;-60
2022/05/07 04:51:58;;;;;;;9.80;9.00;;;;;;;11.02;87.17;96027.72;5029207;28;20667;-60
2022/05/07 04:54:24;;;;;;;9.38;8.57;;;;;;;10.98;87.33;96018.44;5029312;28;20064;-60
2022/05/07 04:56:51;;;;;;;8.43;7.75;;;;;;;11.01;87.27;96023.44;5029081;28;20492;-60
2022/05/07 04:59:18;;;;;;;14.45;8.45;;;;;;;11.00;87.18;96024.41;5028706;28;20216;-60
2022/05/07 05:01:44;;;;;;;9.45;8.63;;;;;;;10.99;87.09;96028.81;5028975;28;20084;-60
2022/05/07 05:04:10;;;;;;;10.10;9.20;;;;;;;11.01;87.79;96026.06;5028941;28;20104;-60
2022/05/07 05:06:35;;;;;;;9.40;8.68;;;;;;;11.00;87.51;96021.75;5029101;28;20030;-60
2022/05/07 05:09:01;;;;;;;9.13;8.43;;;;;;;10.99;87.41;96026.19;5028775;28;20108;-60
2022/05/07 05:11:27;;;;;;;8.88;8.18;;;;;;;11.03;87.69;96026.75;5029057;28;20087;-61
2022/05/07 05:13:52;;;;;;;10.18;9.18;;;;;;;11.06;87.59;96033.56;5028923;28;20033;-60
2022/05/07 05:16:17;;;;;;;9.07;8.18;;;;;;;11.03;88.27;96034.66;5028795;28;20498;-60
2022/05/07 05:18:44;;;;;;;8.52;7.93;;;;;;;11.01;88.56;96034.78;5028880;28;20053;-60
2022/05/07 05:21:09;;;;;;;9.43;8.38;;;;;;;11.02;88.57;96035.63;5028698;28;20036;-60
2022/05/07 05:23:34;;;;;;;8.93;8.18;;;;;;;11.00;89.29;96048.94;5028968;28;20408;-60
2022/05/07 05:26:00;;;;;;;8.82;7.82;;;;;;;10.99;90.41;96042.00;5030433;28;20409;-61
2022/05/07 05:28:25;;;;;;;9.07;8.38;;;;;;;11.01;90.31;96044.50;5032552;28;20021;-59
2022/05/07 05:30:53;;;;;;;8.90;8.15;;;;;;;10.98;90.61;96037.69;5032064;28;20409;-60
2022/05/07 05:33:22;;;;;;;9.18;8.43;;;;;;;10.97;91.27;96046.56;5032277;28;20049;-60
2022/05/07 05:35:48;;;;;;;8.45;7.85;;;;;;;10.95;91.11;96045.06;5032306;28;20392;-60
2022/05/07 05:38:17;;;;;;;10.23;8.52;;;;;;;11.01;89.90;96039.22;5032137;28;20029;-60
2022/05/07 05:40:42;;;;;;;8.75;8.15;;;;;;;11.06;89.09;96036.19;5032145;28;20560;-60
2022/05/07 05:43:08;;;;;;;9.30;8.55;;;;;;;11.02;88.65;96035.63;5032087;28;20030;-60
2022/05/07 05:45:34;;;;;;;8.90;8.15;;;;;;;11.04;88.93;96037.13;5031876;28;20025;-60
2022/05/07 05:48:01;;;;;;;8.23;7.53;;;;;;;11.16;88.50;96031.75;5031834;28;20037;-60
2022/05/07 05:50:29;;;;;;;7.70;7.03;;;;;;;11.23;87.96;96037.31;5031953;28;20136;-61
2022/05/07 05:52:55;;;;;;;8.43;7.38;;;;;;;11.25;88.07;96041.47;5030727;28;20029;-60
2022/05/07 05:55:20;;;;;;;8.02;6.65;;;;;;;11.28;88.43;96040.38;5031321;28;20083;-60
2022/05/07 05:57:46;;;;;;;7.28;6.78;;;;;;;11.23;89.13;96040.78;5031878;28;20053;-61
2022/05/07 06:00:12;;;;;;;7.78;7.07;;;;;;;11.20;89.53;96038.41;5031071;28;20045;-60
2022/05/07 06:02:38;;;;;;;7.60;7.00;;;;;;;11.14;90.06;96029.25;5031435;28;20022;-60
2022/05/07 06:05:04;;;;;;;9.80;7.50;;;;;;;11.20;89.63;96034.97;5031342;28;20100;-60
2022/05/07 06:07:29;;;;;;;8.57;7.82;;;;;;;11.17;89.51;96042.19;5031870;28;20025;-60
2022/05/07 06:09:55;;;;;;;10.25;8.13;;;;;;;11.22;89.21;96041.75;5030762;28;20033;-60
2022/05/07 06:12:21;;;;;;;9.02;8.32;;;;;;;11.21;89.03;96036.63;5031321;28;20483;-60
2022/05/07 06:14:47;;;;;;;9.98;9.18;;;;;;;11.21;88.91;96036.63;5031450;28;20124;-60
2022/05/07 06:17:13;;;;;;;9.43;8.63;;;;;;;11.16;89.14;96045.78;5031327;28;20022;-60
2022/05/07 06:19:38;;;;;;;9.05;7.75;;;;;;;11.27;88.69;96043.97;5031504;28;20060;-59
2022/05/07 06:22:04;;;;;;;8.68;7.97;;;;;;;11.21;89.79;96041.91;5031306;28;20429;-60
2022/05/07 06:27:28;;;;;;;8.95;8.15;;;;;;;11.18;88.98;96051.75;5030871;28;20083;-60
2022/05/07 06:29:53;;;;;;;9.52;8.65;;;;;;;11.21;88.78;96055.06;5030980;28;20451;-60
2022/05/07 06:32:19;;;;;;;9.88;9.07;;;;;;;11.16;89.05;96048.41;5031188;28;20029;-60
2022/05/07 06:34:45;;;;;;;9.60;8.77;;;;;;;11.15;89.26;96056.44;5031191;28;20112;-60
2022/05/07 06:37:11;;;;;;;9.40;8.60;;;;;;;11.20;89.50;96050.78;5030270;28;20030;-60
2022/05/07 06:39:37;;;;;;;9.13;8.43;;;;;;;11.20;89.24;96048.97;5030982;28;20045;-60
2022/05/07 06:42:03;;;;;;;9.85;9.02;;;;;;;11.20;89.30;96051.59;5031226;28;20017;-60
2022/05/07 06:44:28;;;;;;;9.70;8.88;;;;;;;11.21;88.43;96049.81;5031264;28;20030;-60
2022/05/07 06:46:56;;;;;;;17.15;9.93;;;;;;;11.20;88.33;96050.78;5030930;28;20029;-60
2022/05/07 06:49:21;;;;;;;10.63;9.73;;;;;;;11.20;88.74;96056.06;5029440;28;20488;-60
2022/05/07 06:51:47;;;;;;;10.10;9.10;;;;;;;11.23;88.66;96055.78;5030728;28;20030;-60
2022/05/07 06:54:12;;;;;;;10.43;9.70;;;;;;;11.24;88.13;96052.16;5030612;28;20026;-60
2022/05/07 06:56:37;;;;;;;10.00;8.95;;;;;;;11.25;87.85;96053.81;5030736;28;20049;-60
2022/05/07 06:59:03;;;;;;;10.82;8.95;;;;;;;11.25;87.86;96062.56;5030774;28;20046;-60
2022/05/07 07:01:29;;;;;;;10.00;9.20;;;;;;;11.35;87.58;96059.09;5030798;28;20036;-60
2022/05/07 07:03:55;;;;;;;9.98;9.15;;;;;;;11.34;87.71;96058.25;5030699;28;20033;-60
2022/05/07 07:06:21;;;;;;;10.95;9.93;;;;;;;11.39;86.85;96050.78;5030441;28;20045;-61
2022/05/07 07:08:48;;;;;;;10.93;10.02;;;;;;;11.45;86.82;96052.03;5030208;28;20059;-60
2022/05/07 07:11:14;;;;;;;10.30;9.52;;;;;;;11.43;87.12;96057.44;5030472;28;20030;-60
2022/05/07 07:13:41;;;;;;;10.35;9.55;;;;;;;11.36;87.55;96053.69;5031619;28;20056;-60
2022/05/07 07:16:06;;;;;;;13.45;12.15;;;;;;;11.35;87.15;96057.28;5030308;28;20036;-60
2022/05/07 07:18:31;;;;;;;12.60;11.40;;;;;;;11.42;87.64;96061.06;5030638;28;20021;-60
2022/05/07 07:20:57;;;;;;;11.07;10.15;;;;;;;11.62;86.44;96063.69;5030194;28;20033;-60
2022/05/07 07:23:22;;;;;;;11.02;10.00;;;;;;;11.65;86.96;96062.56;5030167;28;20400;-59
2022/05/07 07:25:48;;;;;;;10.15;9.32;;;;;;;11.69;86.95;96059.53;5029829;28;20092;-59
2022/05/07 07:28:13;;;;;;;11.13;9.23;;;;;;;11.69;87.18;96058.69;5027815;28;20467;-60
2022/05/07 07:30:39;;;;;;;9.45;8.65;;;;;;;11.65;88.12;96063.41;5028525;28;20036;-60
2022/05/07 07:33:05;;;;;;;10.43;9.35;;;;;;;11.67;88.18;96055.34;5027557;28;20079;-60
2022/05/07 07:35:31;;;;;;;9.88;8.50;;;;;;;11.70;87.44;96055.91;5027700;28;20029;-60
2022/05/07 07:37:57;;;;;;;9.40;8.50;;;;;;;11.71;87.44;96060.22;5029218;28;20041;-60
2022/05/07 07:40:22;;;;;;;9.63;8.73;;;;;;;11.73;88.32;96053.00;5029864;28;20025;-59
2022/05/07 07:42:48;;;;;;;9.90;8.85;;;;;;;11.84;88.26;96056.47;5029928;28;20034;-60
2022/05/07 07:48:03;;;;;;;13.27;9.10;;;;;;;11.92;87.99;96061.84;5019673;28;20476;-59
2022/05/07 07:50:34;;;;;;;10.60;9.50;;;;;;;11.95;87.76;96068.69;5028566;28;20032;-60
2022/05/07 07:53:10;;;;;;;11.10;9.80;;;;;;;11.90;88.01;96063.81;5027674;28;20036;-59
2022/05/07 07:55:36;;;;;;;9.93;9.02;;;;;;;11.88;88.65;96063.13;5028050;28;20075;-59
2022/05/07 07:58:07;;;;;;;10.00;9.10;;;;;;;11.90;88.39;96069.91;5028094;28;20029;-60
2022/05/07 08:00:33;;;;;;;10.27;9.27;;;;;;;11.86;88.10;96065.06;5027438;28;20045;-59
2022/05/07 08:03:03;;;;;;;9.48;8.68;;;;;;;11.88;87.61;96069.22;5019001;28;20038;-59
2022/05/07 08:05:36;;;;;;;11.90;9.27;;;;;;;11.90;86.45;96063.81;5009639;28;20642;-59
2022/05/07 08:13:36;;;;;;;9.30;8.50;;;;;;;12.04;84.89;96063.38;5008115;28;20409;-61
2022/05/07 08:16:03;;;;;;;10.52;9.63;;;;;;;12.12;84.58;96054.75;5007760;28;20049;-60
2022/05/07 08:18:28;;;;;;;11.65;10.38;;;;;;;12.24;84.39;96065.97;5010345;28;20037;-60
2022/05/07 08:20:55;;;;;;;9.45;8.57;;;;;;;12.27;83.51;96063.09;5008125;28;20034;-60
2022/05/07 08:23:20;;;;;;;10.07;9.15;;;;;;;12.38;82.85;96063.88;5016316;28;20109;-60
2022/05/07 08:25:45;;;;;;;9.38;8.68;;;;;;;12.44;83.07;96065.94;5029577;28;20469;-60
2022/05/07 08:28:11;;;;;;;9.82;8.85;;;;;;;12.52;82.50;96071.34;5028314;28;20041;-60
2022/05/07 08:30:37;;;;;;;10.45;8.75;;;;;;;12.49;80.79;96066.34;5028613;28;20025;-60
2022/05/07 08:33:07;;;;;;;9.73;8.82;;;;;;;12.58;81.33;96076.03;5025372;28;20064;-60
2022/05/07 08:35:32;;;;;;;9.43;8.63;;;;;;;12.77;81.42;96074.28;5027043;28;20378;-61
2022/05/07 08:37:57;;;;;;;8.90;8.18;;;;;;;12.87;81.22;96077.69;5029342;28;20087;-61
2022/05/07 08:40:24;;;;;;;9.15;8.25;;;;;;;12.94;80.73;96080.59;5029171;28;20029;-60
2022/05/07 08:42:50;;;;;;;9.90;8.68;;;;;;;13.09;80.03;96078.28;5029271;28;20021;-60
2022/05/07 08:45:16;;;;;;;8.30;7.60;;;;;;;13.21;79.74;96072.78;5023630;28;20041;-60
2022/05/07 08:47:43;;;;;;;8.82;8.10;;;;;;;13.26;79.79;96067.88;5021916;28;20030;-60
2022/05/07 08:50:10;;;;;;;8.43;7.75;;;;;;;13.39;78.29;96068.38;5029269;28;20072;-60
2022/05/07 08:52:43;;;;;;;9.13;8.32;;;;;;;13.36;78.76;96073.94;5029452;28;20036;-60
2022/05/07 08:55:13;;;;;;;9.55;8.00;;;;;;;13.26;76.42;96062.59;5029185;28;20029;-60
2022/05/07 08:57:39;;;;;;;8.00;7.28;;;;;;;13.52;77.90;96061.88;5029231;28;20029;-61
2022/05/07 09:00:05;;;;;;;8.05;7.35;;;;;;;13.65;77.36;96064.16;5029528;28;20045;-60
2022/05/07 09:02:41;;;;;;;7.85;7.25;;;;;;;13.83;77.35;96058.84;5032557;28;20038;-61
2022/05/07 09:05:08;;;;;;;8.05;7.32;;;;;;;14.00;77.35;96057.16;5033009;28;20031;-60
2022/05/07 09:07:34;;;;;;;8.25;7.57;;;;;;;14.18;76.00;96051.81;5032867;28;20064;-60
2022/05/07 09:09:59;;;;;;;7.78;7.20;;;;;;;14.31;75.06;96046.94;5032767;28;20080;-60
2022/05/07 09:12:29;;;;;;;7.50;7.00;;;;;;;14.36;75.37;96054.41;5032581;28;20021;-60
2022/05/07 09:15:02;;;;;;;8.13;7.43;;;;;;;14.64;74.00;96048.09;5032750;28;20023;-60
2022/05/07 09:17:28;;;;;;;8.30;7.60;;;;;;;14.82;72.24;96050.69;5022225;28;20033;-60
2022/05/07 09:19:54;;;;;;;7.53;6.82;;;;;;;14.68;71.95;96047.63;5015783;28;20402;-60
2022/05/07 09:22:19;;;;;;;8.80;7.53;;;;;;;14.73;72.28;96047.19;5019258;28;20068;-60
2022/05/07 09:24:54;;;;;;;8.50;7.80;;;;;;;14.76;72.61;96046.84;5020199;28;20084;-60
2022/05/07 09:27:20;;;;;;;7.22;6.63;;;;;;;14.90;70.86;96045.41;5011132;28;20384;-59
2022/05/07 09:29:45;;;;;;;8.80;8.00;;;;;;;15.01;70.59;96033.69;5011110;28;20110;-60
2022/05/07 09:32:15;;;;;;;7.88;7.18;;;;;;;15.18;69.33;96034.56;5012233;28;20020;-60
2022/05/07 09:37:35;;;;;;;8.43;7.53;;;;;;;15.18;69.21;96032.75;5012392;28;20109;-60
2022/05/07 09:40:07;;;;;;;7.82;7.22;;;;;;;15.33;70.04;96032.94;5012446;28;20034;-60
2022/05/07 09:42:36;;;;;;;7.70;7.18;;;;;;;15.30;69.18;96035.91;5011906;28;20409;-60
2022/05/07 09:45:03;;;;;;;7.57;6.85;;;;;;;15.56;68.48;96029.63;5012326;28;20038;-60
2022/05/07 09:47:29;;;;;;;9.20;7.05;;;;;;;15.71;68.32;96034.31;5012286;28;20517;-60
2022/05/07 09:58:20;;;;;;;7.27;6.67;;;;;;;15.97;66.97;96015.53;4975216;28;20510;-60
2022/05/07 10:00:58;;;;;;;7.22;6.55;;;;;;;15.87;66.84;96020.19;5012206;28;20038;-60
2022/05/07 10:03:30;;;;;;;7.07;6.47;;;;;;;15.74;68.32;96016.19;5011933;28;20493;-60
2022/05/07 10:06:27;;;;;;;6.40;5.72;;;;;;;16.07;67.27;96015.38;5011952;28;20084;-61
2022/05/07 10:09:04;;;;;;;6.97;6.47;;;;;;;16.10;68.62;96014.22;5018815;28;20028;-61
2022/05/07 10:11:30;;;;;;;6.13;5.63;;;;;;;16.11;67.29;96015.88;5030975;28;20382;-61
2022/05/07 10:13:58;;;;;;;7.22;6.55;;;;;;;16.21;64.79;96018.34;5031043;28;20056;-61
2022/05/07 10:16:28;;;;;;;7.40;6.75;;;;;;;15.98;66.01;96019.03;5023379;28;20033;-60
2022/05/07 10:18:55;;;;;;;6.75;6.05;;;;;;;15.81;66.76;96015.56;5024499;28;20033;-61
2022/05/07 10:21:21;;;;;;;7.05;6.55;;;;;;;15.85;67.28;96022.19;5031313;28;20055;-61
2022/05/07 10:23:56;;;;;;;6.45;5.95;;;;;;;15.59;66.11;96007.25;5031467;28;20026;-60
2022/05/07 10:26:23;;;;;;;;;;;;;;;15.51;67.59;96012.53;5019522;28;20042;-60
2022/05/07 10:28:48;;;;;;;8.93;8.20;;;;;;;15.54;66.37;96014.88;5008722;28;19969;-59
2022/05/07 10:31:23;;;;;;;7.55;6.95;;;;;;;15.36;68.17;96009.72;5008340;28;20440;-59
2022/05/07 10:33:50;;;;;;;7.25;6.75;;;;;;;15.48;67.69;96011.06;5007441;28;20504;-59
2022/05/07 10:36:16;;;;;;;6.82;6.05;;;;;;;15.73;66.33;96011.06;5009755;28;20061;-60
2022/05/07 10:38:44;;;;;;;5.47;4.97;;;;;;;15.75;66.27;96007.25;5009913;28;20501;-60
2022/05/07 10:41:12;;;;;;;8.20;6.32;;;;;;;16.07;65.33;96010.06;5009811;28;20022;-60
2022/05/07 10:43:56;;;;;;;5.68;5.25;;;;;;;16.07;64.25;96004.75;5009039;28;20088;-62
2022/05/07 10:46:22;;;;;;;6.43;5.72;;;;;;;16.02;65.92;96010.56;5010324;28;20065;-61
2022/05/07 10:48:57;;;;;;;6.00;5.50;;;;;;;15.91;66.60;96002.94;5011215;28;20064;-62
2022/05/07 10:51:34;;;;;;;9.40;5.23;;;;;;;15.97;66.91;95998.81;5011326;28;20038;-61
2022/05/07 10:54:05;;;;;;;7.20;5.75;;;;;;;15.99;66.28;95996.81;5011023;28;20863;-61
2022/05/07 10:56:32;;;;;;;6.57;5.97;;;;;;;15.98;65.83;95993.31;5022277;28;20033;-60
2022/05/07 10:58:59;;;;;;;5.68;5.28;;;;;;;15.99;65.78;95994.97;5030571;28;20568;-61
2022/05/07 11:01:27;;;;;;;6.05;5.57;;;;;;;16.19;65.68;95991.94;5030708;28;20028;-60
2022/05/07 11:04:13;;;;;;;5.50;5.10;;;;;;;16.66;64.02;95989.47;5030639;28;20025;-61
2022/05/07 11:06:45;;;;;;;5.82;5.43;;;;;;;16.74;62.78;95984.13;5030024;28;20034;-61
2022/05/07 11:09:31;;;;;;;6.15;5.65;;;;;;;16.66;62.53;95984.97;5030615;28;20033;-61
2022/05/07 11:11:57;;;;;;;;;;;;;;;16.68;63.84;95985.63;5030603;28;20033;-61
2022/05/07 11:14:23;;;;;;;5.65;5.25;;;;;;;16.66;63.62;95976.16;5030317;28;19920;-61
2022/05/07 11:16:50;;;;;;;5.38;4.78;;;;;;;16.72;63.01;95978.16;5030411;28;20025;-61
2022/05/07 11:19:35;;;;;;;6.05;5.45;;;;;;;16.56;64.04;95977.22;5030262;28;20033;-61
2022/05/07 11:22:05;;;;;;;5.60;5.05;;;;;;;16.83;62.62;95985.72;5030217;28;20025;-61
2022/05/07 11:24:32;;;;;;;5.10;4.70;;;;;;;16.74;63.16;95989.44;5029872;28;20038;-61
2022/05/07 11:27:02;;;;;;;5.10;4.80;;;;;;;16.49;64.48;95978.06;5029979;28;20033;-61
2022/05/07 11:29:29;;;;;;;4.47;4.18;;;;;;;16.55;64.09;95980.03;5030192;28;20026;-61
2022/05/07 11:31:59;;;;;;;4.63;4.32;;;;;;;16.42;64.09;95991.22;5030108;28;20041;-61
2022/05/07 11:34:32;;;;;;;5.22;4.82;;;;;;;16.28;65.09;95984.78;5029819;28;20034;-61
2022/05/07 11:37:21;;;;;;;5.43;4.93;;;;;;;16.32;65.14;95981.63;5020695;28;20105;-61
2022/05/07 11:39:53;;;;;;;5.45;5.00;;;;;;;16.37;64.88;95974.97;5010219;28;20069;-61
2022/05/07 11:42:28;;;;;;;4.65;4.35;;;;;;;16.34;63.55;95978.78;5010093;28;20034;-61
2022/05/07 11:47:49;;;;;;;4.82;4.40;;;;;;;16.17;65.62;95972.69;5010402;28;20434;-61
2022/05/07 11:50:20;;;;;;;5.85;5.10;;;;;;;16.40;65.17;95969.31;5010211;28;20489;-61
2022/05/07 11:52:46;;;;;;;5.45;5.05;;;;;;;16.49;64.87;95976.25;5010150;28;20133;-61
2022/05/07 11:55:11;;;;;;;5.50;5.03;;;;;;;16.73;64.29;95963.84;5010216;28;20636;-61
2022/05/07 11:57:37;;;;;;;5.38;5.07;;;;;;;17.11;62.44;95963.97;5010043;28;20121;-60
2022/05/07 12:00:12;;;;;;;5.65;5.15;;;;;;;17.27;61.00;95960.41;5009779;28;20049;-61
2022/05/07 12:02:39;;;;;;;5.50;5.10;;;;;;;17.44;60.47;95955.78;5009961;28;20058;-61